createdAt,value
2023-02-22T00:00:03.274Z,27.20
2023-02-22T00:01:03.318Z,27.21
2023-02-22T00:02:03.386Z,27.18
2023-02-22T00:03:03.433Z,27.18
2023-02-22T00:04:03.532Z,27.21
2023-02-22T00:05:03.627Z,27.20
2023-02-22T00:06:03.640Z,27.18
2023-02-22T00:07:03.716Z,27.23
2023-02-22T00:08:03.763Z,27.18
2023-02-22T00:09:03.808Z,27.21
2023-02-22T00:10:03.921Z,27.23
2023-02-22T00:11:03.973Z,27.23
2023-02-22T00:12:04.010Z,27.18
2023-02-22T00:13:04.072Z,27.21
2023-02-22T00:14:04.103Z,27.24
2023-02-22T00:15:04.156Z,27.21
2023-02-22T00:16:04.290Z,27.21
2023-02-22T00:17:04.287Z,27.23
2023-02-22T00:18:04.331Z,27.21
2023-02-22T00:19:04.921Z,27.24
2023-02-22T00:20:04.511Z,27.21
2023-02-22T00:21:04.534Z,27.20
2023-02-22T00:22:04.645Z,27.21
2023-02-22T00:23:04.673Z,27.21
2023-02-22T00:24:04.761Z,27.23
2023-02-22T00:25:04.796Z,27.21
2023-02-22T00:26:04.869Z,27.20
2023-02-22T00:27:04.924Z,27.23
2023-02-22T00:28:05.014Z,27.23
2023-02-22T00:29:05.061Z,27.20
2023-02-22T00:30:05.228Z,27.23
2023-02-22T00:31:05.199Z,27.20
2023-02-22T00:32:05.384Z,27.20
2023-02-22T00:33:05.316Z,27.23
2023-02-22T00:34:05.430Z,27.23
2023-02-22T00:35:05.490Z,27.23
2023-02-22T00:36:05.562Z,27.23
2023-02-22T00:37:05.606Z,27.23
2023-02-22T00:38:05.660Z,27.23
2023-02-22T00:39:05.719Z,27.24
2023-02-22T00:40:05.780Z,27.23
2023-02-22T00:41:05.900Z,27.24
2023-02-22T00:42:05.906Z,27.20
2023-02-22T00:43:05.974Z,27.23
2023-02-22T00:44:06.490Z,27.21
2023-02-22T00:45:06.113Z,27.24
2023-02-22T00:46:06.266Z,27.24
2023-02-22T00:47:06.248Z,27.26
2023-02-22T00:48:06.288Z,27.21
2023-02-22T00:49:06.372Z,27.23
2023-02-22T00:50:06.465Z,27.24
2023-02-22T00:51:06.530Z,27.24
2023-02-22T00:52:06.582Z,27.23
2023-02-22T00:53:06.610Z,27.23
2023-02-22T00:54:06.707Z,27.23
2023-02-22T00:55:06.781Z,27.23
2023-02-22T00:56:06.852Z,27.24
2023-02-22T00:57:06.940Z,27.24
2023-02-22T00:58:06.966Z,27.21
2023-02-22T00:59:07.062Z,27.24
2023-02-22T01:00:07.113Z,27.23
2023-02-22T01:01:07.184Z,27.21
2023-02-22T01:02:07.235Z,27.23
2023-02-22T01:03:07.334Z,27.20
2023-02-22T01:04:07.397Z,27.24
2023-02-22T01:05:07.470Z,27.23
2023-02-22T01:06:07.494Z,27.26
2023-02-22T01:07:07.603Z,27.24
2023-02-22T01:08:07.665Z,27.21
2023-02-22T01:09:07.744Z,27.21
2023-02-22T01:10:07.787Z,27.23
2023-02-22T01:11:07.832Z,27.24
2023-02-22T01:12:07.966Z,27.24
2023-02-22T01:13:07.958Z,27.24
2023-02-22T01:14:08.026Z,27.23
2023-02-22T01:15:08.128Z,27.24
2023-02-22T01:16:08.153Z,27.23
2023-02-22T01:17:08.218Z,27.23
2023-02-22T01:18:08.307Z,27.24
2023-02-22T01:19:08.356Z,27.23
2023-02-22T01:20:08.432Z,27.24
2023-02-22T01:21:08.488Z,27.23
2023-02-22T01:22:08.535Z,27.23
2023-02-22T01:23:08.614Z,27.21
2023-02-22T01:24:08.660Z,27.24
2023-02-22T01:25:08.727Z,27.26
2023-02-22T01:26:08.800Z,27.21
2023-02-22T01:27:08.841Z,27.24
2023-02-22T01:28:08.949Z,27.23
2023-02-22T01:29:08.957Z,27.24
2023-02-22T01:30:09.098Z,27.24
2023-02-22T01:31:09.078Z,27.24
2023-02-22T01:32:09.201Z,27.24
2023-02-22T01:33:09.951Z,27.24
2023-02-22T01:34:09.259Z,27.24
2023-02-22T01:35:09.344Z,27.24
2023-02-22T01:36:09.342Z,27.23
2023-02-22T01:37:09.414Z,27.23
2023-02-22T01:38:09.493Z,27.26
2023-02-22T01:39:09.558Z,27.23
2023-02-22T01:40:09.611Z,27.23
2023-02-22T01:41:09.689Z,27.24
2023-02-22T01:42:09.719Z,27.23
2023-02-22T01:43:09.807Z,27.26
2023-02-22T01:44:09.890Z,27.24
2023-02-22T01:45:09.966Z,27.24
2023-02-22T01:46:10.025Z,27.23
2023-02-22T01:47:10.052Z,27.24
2023-02-22T01:48:10.150Z,27.26
2023-02-22T01:49:10.171Z,27.26
2023-02-22T01:50:10.282Z,27.24
2023-02-22T01:51:10.315Z,27.26
2023-02-22T01:52:10.372Z,27.26
2023-02-22T01:53:10.488Z,27.23
2023-02-22T01:54:10.490Z,27.23
2023-02-22T01:55:10.561Z,27.24
2023-02-22T01:56:10.624Z,27.24
2023-02-22T01:57:10.718Z,27.24
2023-02-22T01:58:10.764Z,27.27
2023-02-22T01:59:10.794Z,27.26
2023-02-22T02:00:10.886Z,27.24
2023-02-22T02:01:10.917Z,27.24
2023-02-22T02:02:10.986Z,27.24
2023-02-22T02:03:11.052Z,27.24
2023-02-22T02:04:11.113Z,27.24
2023-02-22T02:05:11.307Z,27.26
2023-02-22T02:06:11.208Z,27.26
2023-02-22T02:07:11.276Z,27.24
2023-02-22T02:08:11.340Z,27.24
2023-02-22T02:09:11.429Z,27.24
2023-02-22T02:10:11.450Z,27.26
2023-02-22T02:11:11.521Z,27.26
2023-02-22T02:12:11.584Z,27.24
2023-02-22T02:13:11.650Z,27.24
2023-02-22T02:14:11.701Z,27.26
2023-02-22T02:15:11.778Z,27.23
2023-02-22T02:16:11.856Z,27.24
2023-02-22T02:17:11.920Z,27.24
2023-02-22T02:18:11.970Z,27.24
2023-02-22T02:19:12.041Z,27.27
2023-02-22T02:20:12.098Z,27.27
2023-02-22T02:21:12.163Z,27.26
2023-02-22T02:22:12.230Z,27.26
2023-02-22T02:23:12.279Z,27.24
2023-02-22T02:24:12.341Z,27.24
2023-02-22T02:25:12.398Z,27.26
2023-02-22T02:26:12.473Z,27.27
2023-02-22T02:27:12.508Z,27.26
2023-02-22T02:28:12.586Z,27.26
2023-02-22T02:29:12.642Z,27.24
2023-02-22T02:30:12.760Z,27.26
2023-02-22T02:31:12.760Z,27.23
2023-02-22T02:32:12.989Z,27.24
2023-02-22T02:33:12.856Z,27.26
2023-02-22T02:34:12.931Z,27.26
2023-02-22T02:35:13.032Z,27.24
2023-02-22T02:36:13.065Z,27.26
2023-02-22T02:37:13.116Z,27.26
2023-02-22T02:38:13.192Z,27.26
2023-02-22T02:39:13.268Z,27.26
2023-02-22T02:40:13.334Z,27.27
2023-02-22T02:41:13.389Z,27.24
2023-02-22T02:42:13.416Z,27.26
2023-02-22T02:43:13.479Z,27.24
2023-02-22T02:44:13.569Z,27.27
2023-02-22T02:45:13.621Z,27.26
2023-02-22T02:46:13.677Z,27.27
2023-02-22T02:47:13.767Z,27.24
2023-02-22T02:48:13.801Z,27.26
2023-02-22T02:49:13.863Z,27.27
2023-02-22T02:50:13.931Z,27.27
2023-02-22T02:51:14.026Z,27.24
2023-02-22T02:52:14.088Z,27.26
2023-02-22T02:53:14.102Z,27.27
2023-02-22T02:54:14.221Z,27.27
2023-02-22T02:55:14.255Z,27.24
2023-02-22T02:56:14.328Z,27.24
2023-02-22T02:57:14.375Z,27.27
2023-02-22T02:58:14.438Z,27.24
2023-02-22T02:59:14.509Z,27.26
2023-02-22T03:00:14.585Z,27.24
2023-02-22T03:01:14.832Z,27.26
2023-02-22T03:02:14.721Z,27.27
2023-02-22T03:03:14.765Z,27.27
2023-02-22T03:04:14.811Z,27.27
2023-02-22T03:05:14.907Z,27.27
2023-02-22T03:06:14.948Z,27.30
2023-02-22T03:07:15.074Z,27.29
2023-02-22T03:08:15.082Z,27.31
2023-02-22T03:09:15.181Z,27.30
2023-02-22T03:10:15.211Z,27.29
2023-02-22T03:11:15.758Z,27.31
2023-02-22T03:12:15.374Z,27.34
2023-02-22T03:13:15.411Z,27.34
2023-02-22T03:14:15.432Z,27.34
2023-02-22T03:15:15.578Z,27.37
2023-02-22T03:16:15.648Z,27.37
2023-02-22T03:17:15.676Z,27.38
2023-02-22T03:18:15.709Z,27.38
2023-02-22T03:19:15.773Z,27.41
2023-02-22T03:20:15.853Z,27.41
2023-02-22T03:21:16.138Z,27.43
2023-02-22T03:22:15.961Z,27.41
2023-02-22T03:23:16.020Z,27.44
2023-02-22T03:24:16.057Z,27.47
2023-02-22T03:25:16.162Z,27.47
2023-02-22T03:26:16.161Z,27.45
2023-02-22T03:27:16.220Z,27.50
2023-02-22T03:28:16.271Z,27.51
2023-02-22T03:29:16.302Z,27.50
2023-02-22T03:30:16.369Z,27.54
2023-02-22T03:31:16.808Z,27.55
2023-02-22T03:32:16.457Z,27.57
2023-02-22T03:33:16.507Z,27.58
2023-02-22T03:34:16.557Z,27.58
2023-02-22T03:35:16.540Z,27.60
2023-02-22T03:36:16.612Z,27.62
2023-02-22T03:37:16.675Z,27.64
2023-02-22T03:38:16.707Z,27.62
2023-02-22T03:39:16.743Z,27.66
2023-02-22T03:40:16.828Z,27.66
2023-02-22T03:41:17.020Z,27.69
2023-02-22T03:42:16.799Z,27.68
2023-02-22T03:43:16.875Z,27.68
2023-02-22T03:44:16.884Z,27.69
2023-02-22T03:45:16.940Z,27.74
2023-02-22T03:46:16.971Z,27.75
2023-02-22T03:47:16.958Z,27.78
2023-02-22T03:48:17.011Z,27.77
2023-02-22T03:49:17.056Z,27.78
2023-02-22T03:50:17.066Z,27.78
2023-02-22T03:51:17.457Z,27.81
2023-02-22T03:52:17.143Z,27.82
2023-02-22T03:53:17.137Z,27.82
2023-02-22T03:54:17.149Z,27.84
2023-02-22T03:55:17.195Z,27.84
2023-02-22T03:56:17.236Z,27.85
2023-02-22T03:57:17.272Z,27.84
2023-02-22T03:58:17.274Z,27.87
2023-02-22T03:59:17.291Z,27.85
2023-02-22T04:00:17.285Z,27.87
2023-02-22T04:01:17.621Z,27.88
2023-02-22T04:02:17.357Z,27.85
2023-02-22T04:03:17.413Z,27.88
2023-02-22T04:04:17.436Z,27.89
2023-02-22T04:05:17.407Z,27.89
2023-02-22T04:06:17.409Z,27.85
2023-02-22T04:07:17.438Z,27.88
2023-02-22T04:08:17.484Z,27.88
2023-02-22T04:09:17.494Z,27.91
2023-02-22T04:10:17.539Z,27.91
2023-02-22T04:11:17.789Z,27.91
2023-02-22T04:12:17.606Z,27.89
2023-02-22T04:13:17.597Z,27.91
2023-02-22T04:14:17.635Z,27.94
2023-02-22T04:15:17.649Z,27.96
2023-02-22T04:16:17.693Z,27.92
2023-02-22T04:17:17.694Z,27.91
2023-02-22T04:18:17.729Z,27.92
2023-02-22T04:19:17.811Z,27.94
2023-02-22T04:20:17.735Z,27.89
2023-02-22T04:21:18.034Z,27.92
2023-02-22T04:22:17.829Z,27.92
2023-02-22T04:23:17.865Z,27.92
2023-02-22T04:24:17.877Z,27.94
2023-02-22T04:25:17.873Z,27.96
2023-02-22T04:26:17.912Z,27.94
2023-02-22T04:27:17.958Z,27.91
2023-02-22T04:28:18.006Z,27.94
2023-02-22T04:29:18.004Z,27.94
2023-02-22T04:30:18.104Z,27.92
2023-02-22T04:31:18.462Z,27.94
2023-02-22T04:32:18.132Z,27.92
2023-02-22T04:33:18.133Z,27.94
2023-02-22T04:34:18.207Z,27.94
2023-02-22T04:35:18.187Z,27.92
2023-02-22T04:36:18.194Z,27.92
2023-02-22T04:37:18.228Z,27.92
2023-02-22T04:38:18.230Z,27.94
2023-02-22T04:39:18.290Z,27.91
2023-02-22T04:40:18.314Z,27.89
2023-02-22T04:41:18.575Z,27.91
2023-02-22T04:42:18.342Z,27.89
2023-02-22T04:43:18.361Z,27.89
2023-02-22T04:44:18.378Z,27.89
2023-02-22T04:45:18.388Z,27.91
2023-02-22T04:46:18.493Z,27.89
2023-02-22T04:47:18.481Z,27.88
2023-02-22T04:48:18.465Z,27.89
2023-02-22T04:49:18.530Z,27.89
2023-02-22T04:50:18.566Z,27.88
2023-02-22T04:51:18.762Z,27.89
2023-02-22T04:52:18.643Z,27.89
2023-02-22T04:53:18.618Z,27.87
2023-02-22T04:54:18.686Z,27.88
2023-02-22T04:55:18.650Z,27.91
2023-02-22T04:56:18.709Z,27.88
2023-02-22T04:57:18.758Z,27.89
2023-02-22T04:58:18.767Z,27.89
2023-02-22T04:59:18.835Z,27.88
2023-02-22T05:00:19.050Z,27.88
2023-02-22T05:01:19.123Z,27.89
2023-02-22T05:02:18.900Z,27.88
2023-02-22T05:03:18.893Z,27.88
2023-02-22T05:04:18.915Z,27.89
2023-02-22T05:05:18.928Z,27.89
2023-02-22T05:06:18.929Z,27.87
2023-02-22T05:07:18.980Z,27.87
2023-02-22T05:08:19.018Z,27.89
2023-02-22T05:09:19.042Z,27.88
2023-02-22T05:10:19.054Z,27.88
2023-02-22T05:11:19.192Z,27.88
2023-02-22T05:12:19.118Z,27.87
2023-02-22T05:13:19.148Z,27.88
2023-02-22T05:14:19.150Z,27.88
2023-02-22T05:15:19.202Z,27.87
2023-02-22T05:16:19.333Z,27.88
2023-02-22T05:17:19.202Z,27.89
2023-02-22T05:18:19.263Z,27.88
2023-02-22T05:19:19.262Z,27.88
2023-02-22T05:20:19.853Z,27.88
2023-02-22T05:21:19.469Z,27.88
2023-02-22T05:22:19.343Z,27.89
2023-02-22T05:23:19.365Z,27.91
2023-02-22T05:24:19.412Z,27.92
2023-02-22T05:25:19.403Z,27.92
2023-02-22T05:26:19.412Z,27.89
2023-02-22T05:27:19.426Z,27.92
2023-02-22T05:28:19.492Z,27.91
2023-02-22T05:29:19.492Z,27.92
2023-02-22T05:30:19.567Z,27.92
2023-02-22T05:31:19.944Z,27.92
2023-02-22T05:32:19.610Z,27.91
2023-02-22T05:33:19.612Z,27.88
2023-02-22T05:34:19.636Z,27.91
2023-02-22T05:35:19.660Z,27.89
2023-02-22T05:36:19.741Z,27.92
2023-02-22T05:37:19.714Z,27.91
2023-02-22T05:38:19.768Z,27.92
2023-02-22T05:39:19.761Z,27.92
2023-02-22T05:40:19.794Z,27.92
2023-02-22T05:41:19.814Z,27.89
2023-02-22T05:42:19.829Z,27.94
2023-02-22T05:43:19.890Z,27.94
2023-02-22T05:44:19.918Z,27.92
2023-02-22T05:45:19.913Z,27.92
2023-02-22T05:46:19.904Z,27.92
2023-02-22T05:47:19.925Z,27.92
2023-02-22T05:48:22.302Z,27.95
2023-02-22T05:49:19.957Z,27.92
2023-02-22T05:50:19.982Z,27.91
2023-02-22T05:51:19.945Z,27.89
2023-02-22T05:52:19.977Z,27.91
2023-02-22T05:53:19.936Z,27.89
2023-02-22T05:54:19.959Z,27.92
2023-02-22T05:55:19.977Z,27.91
2023-02-22T05:56:20.013Z,27.92
2023-02-22T05:57:19.980Z,27.91
2023-02-22T05:58:19.956Z,27.92
2023-02-22T05:59:19.942Z,27.92
2023-02-22T06:00:19.981Z,27.92
2023-02-22T06:01:26.974Z,27.92
2023-02-22T06:03:19.993Z,27.94
2023-02-22T06:04:19.977Z,27.92
2023-02-22T06:05:19.981Z,27.94
2023-02-22T06:06:22.096Z,27.92
2023-02-22T06:07:19.995Z,27.94
2023-02-22T06:08:19.969Z,27.94
2023-02-22T06:46:21.045Z,27.91
2023-02-22T08:31:25.164Z,27.82
2023-02-22T08:33:25.968Z,27.81
2023-02-22T08:34:25.486Z,27.85
2023-02-22T08:35:25.370Z,27.87
2023-02-22T08:36:26.987Z,27.91
2023-02-22T08:37:25.600Z,27.88
2023-02-22T08:38:25.410Z,27.88
2023-02-22T08:39:25.385Z,27.91
2023-02-22T08:40:26.755Z,27.92
2023-02-22T08:41:26.652Z,27.92
2023-02-22T08:42:25.247Z,27.94
2023-02-22T08:43:25.226Z,27.91
2023-02-22T08:44:25.288Z,27.89
2023-02-22T08:45:25.318Z,27.94
2023-02-22T08:46:25.647Z,27.91
2023-02-22T08:47:25.390Z,27.89
2023-02-22T08:48:25.423Z,27.84
2023-02-22T08:49:25.464Z,27.84
2023-02-22T08:50:25.472Z,27.81
2023-02-22T08:51:27.751Z,27.80
2023-02-22T08:52:25.584Z,27.78
2023-02-22T08:53:25.616Z,27.78
2023-02-22T08:54:25.696Z,27.77
2023-02-22T08:55:25.770Z,27.77
2023-02-22T08:56:25.825Z,27.75
2023-02-22T08:57:25.765Z,27.75
2023-02-22T08:58:25.881Z,27.77
2023-02-22T08:59:25.878Z,27.77
2023-02-22T09:00:25.944Z,27.78
2023-02-22T09:01:33.017Z,27.78
2023-02-22T09:02:26.962Z,27.81
2023-02-22T09:03:26.005Z,27.81
2023-02-22T09:04:25.937Z,27.81
2023-02-22T09:05:25.933Z,27.84
2023-02-22T09:06:25.935Z,27.84
2023-02-22T09:07:25.939Z,27.85
2023-02-22T09:08:25.971Z,27.88
2023-02-22T09:09:25.978Z,27.87
2023-02-22T09:10:25.931Z,27.87
2023-02-22T09:11:25.966Z,27.89
2023-02-22T09:12:25.924Z,27.91
2023-02-22T09:13:25.923Z,27.91
2023-02-22T09:14:25.935Z,27.95
2023-02-22T09:15:25.944Z,27.95
2023-02-22T09:16:26.002Z,27.96
2023-02-22T09:17:25.908Z,27.99
2023-02-22T09:18:30.564Z,28.02
2023-02-22T09:19:26.886Z,28.01
2023-02-22T09:20:25.883Z,28.01
2023-02-22T09:21:25.896Z,28.03
2023-02-22T09:22:25.947Z,28.03
2023-02-22T09:23:25.891Z,28.03
2023-02-22T09:24:25.895Z,28.05
2023-02-22T09:25:25.897Z,28.08
2023-02-22T09:26:26.162Z,28.08
2023-02-22T09:27:25.923Z,28.11
2023-02-22T09:28:27.268Z,28.12
2023-02-22T09:29:25.849Z,28.13
2023-02-22T09:30:25.892Z,28.12
2023-02-22T09:31:26.297Z,28.15
2023-02-22T09:32:26.053Z,28.16
2023-02-22T09:33:25.907Z,28.16
2023-02-22T09:34:25.814Z,28.18
2023-02-22T09:35:25.819Z,28.22
2023-02-22T09:36:26.373Z,28.23
2023-02-22T09:37:25.829Z,28.25
2023-02-22T09:38:25.783Z,28.27
2023-02-22T09:39:25.872Z,28.26
2023-02-22T09:40:25.828Z,28.26
2023-02-22T09:41:25.815Z,28.26
2023-02-22T09:42:25.866Z,28.18
2023-02-22T09:43:25.873Z,28.15
2023-02-22T09:44:27.621Z,28.16
2023-02-22T09:45:25.847Z,28.16
2023-02-22T09:46:26.145Z,28.15
2023-02-22T09:47:25.951Z,28.11
2023-02-22T09:48:25.903Z,28.12
2023-02-22T09:49:25.914Z,28.13
2023-02-22T09:50:25.960Z,28.08
2023-02-22T09:51:26.176Z,28.02
2023-02-22T09:52:26.117Z,28.05
2023-02-22T09:53:26.451Z,27.95
2023-02-22T09:54:26.117Z,27.92
2023-02-22T09:55:26.172Z,27.88
2023-02-22T09:56:26.216Z,27.78
2023-02-22T09:57:26.270Z,27.77
2023-02-22T09:58:26.328Z,27.72
2023-02-22T09:59:26.366Z,27.71
2023-02-22T10:00:26.431Z,27.71
2023-02-22T10:01:26.479Z,27.68
2023-02-22T10:02:26.525Z,27.69
2023-02-22T10:03:26.654Z,27.66
2023-02-22T10:04:26.636Z,27.62
2023-02-22T10:05:26.699Z,27.58
2023-02-22T10:06:27.161Z,27.55
2023-02-22T10:07:26.789Z,27.58
2023-02-22T10:08:26.847Z,27.58
2023-02-22T10:09:26.913Z,27.60
2023-02-22T10:10:26.960Z,27.62
2023-02-22T10:11:27.172Z,27.62
2023-02-22T10:12:27.097Z,27.65
2023-02-22T10:13:27.129Z,27.68
2023-02-22T10:14:27.180Z,27.66
2023-02-22T10:15:27.236Z,27.68
2023-02-22T10:16:27.286Z,27.72
2023-02-22T10:17:27.361Z,27.74
2023-02-22T10:18:27.361Z,27.75
2023-02-22T10:19:27.354Z,27.75
2023-02-22T10:20:27.417Z,27.80
2023-02-22T10:21:27.638Z,27.81
2023-02-22T10:22:27.489Z,27.80
2023-02-22T10:23:27.543Z,27.84
2023-02-22T10:24:27.557Z,27.85
2023-02-22T10:25:27.554Z,27.85
2023-02-22T10:26:27.574Z,27.88
2023-02-22T10:28:27.679Z,27.94
2023-02-22T11:24:37.356Z,28.01
2023-02-22T11:25:30.017Z,27.99
2023-02-22T11:34:28.988Z,27.92
2023-02-22T12:22:30.735Z,27.74
2023-02-22T12:24:30.570Z,27.68
2023-02-22T12:25:30.619Z,27.64
2023-02-22T12:26:30.652Z,27.65
2023-02-22T12:27:30.737Z,27.66
2023-02-22T12:28:30.767Z,27.69
2023-02-22T12:29:30.836Z,27.69
2023-02-22T12:30:30.871Z,27.72
2023-02-22T12:31:30.915Z,27.71
2023-02-22T12:32:31.465Z,27.75
2023-02-22T12:33:31.024Z,27.74
2023-02-22T12:34:31.020Z,27.74
2023-02-22T12:35:31.062Z,27.74
2023-02-22T12:36:31.107Z,27.74
2023-02-22T12:37:31.129Z,27.75
2023-02-22T12:38:31.248Z,27.77
2023-02-22T12:39:36.067Z,27.78
2023-02-22T12:40:32.186Z,27.78
2023-02-22T12:41:31.194Z,27.81
2023-02-22T12:42:31.213Z,27.81
2023-02-22T12:43:31.212Z,27.80
2023-02-22T12:44:31.247Z,27.82
2023-02-22T12:45:31.194Z,27.80
2023-02-22T12:46:31.267Z,27.82
2023-02-22T12:47:31.240Z,27.84
2023-02-22T12:48:31.227Z,27.84
2023-02-22T12:49:31.193Z,27.82
2023-02-22T12:50:31.238Z,27.85
2023-02-22T12:51:31.198Z,27.82
2023-02-22T12:52:31.203Z,27.85
2023-02-22T12:53:31.223Z,27.87
2023-02-22T12:54:31.182Z,27.85
2023-02-22T12:55:31.207Z,27.87
2023-02-22T12:56:31.223Z,27.85
2023-02-22T12:57:31.261Z,27.87
2023-02-22T12:58:31.317Z,27.87
2023-02-22T12:59:31.294Z,27.85
2023-02-22T13:00:31.392Z,27.84
2023-02-22T13:01:31.412Z,27.87
2023-02-22T13:02:31.411Z,27.87
2023-02-22T13:03:31.447Z,27.88
2023-02-22T13:04:31.464Z,27.87
2023-02-22T13:05:31.568Z,27.89
2023-02-22T13:06:31.518Z,27.89
2023-02-22T13:07:31.552Z,27.87
2023-02-22T13:08:31.601Z,27.87
2023-02-22T13:09:31.597Z,27.87
2023-02-22T13:10:31.669Z,27.91
2023-02-22T13:11:31.676Z,27.89
2023-02-22T13:12:31.715Z,27.88
2023-02-22T13:13:31.744Z,27.87
2023-02-22T13:14:31.836Z,27.89
2023-02-22T13:15:31.801Z,27.88
2023-02-22T13:16:31.856Z,27.88
2023-02-22T13:17:31.900Z,27.89
2023-02-22T13:18:31.898Z,27.91
2023-02-22T13:19:32.148Z,27.89
2023-02-22T13:20:32.002Z,27.88
2023-02-22T13:21:32.047Z,27.85
2023-02-22T13:22:32.065Z,27.87
2023-02-22T13:23:32.076Z,27.89
2023-02-22T13:24:32.127Z,27.87
2023-02-22T13:25:32.146Z,27.85
2023-02-22T13:26:32.197Z,27.88
2023-02-22T13:27:32.250Z,27.85
2023-02-22T13:28:32.314Z,27.89
2023-02-22T13:29:32.321Z,27.87
2023-02-22T13:30:32.355Z,27.88
2023-02-22T13:31:33.868Z,27.85
2023-02-22T13:32:32.417Z,27.88
2023-02-22T13:33:32.373Z,27.89
2023-02-22T13:34:32.446Z,27.89
2023-02-22T13:35:32.389Z,27.89
2023-02-22T13:36:32.354Z,27.91
2023-02-22T13:37:33.686Z,27.89
2023-02-22T13:38:32.374Z,27.89
2023-02-22T13:39:32.351Z,27.89
2023-02-22T13:40:32.369Z,27.89
2023-02-22T13:41:32.427Z,27.89
2023-02-22T13:42:32.373Z,27.88
2023-02-22T13:43:32.334Z,27.89
2023-02-22T13:44:32.369Z,27.88
2023-02-22T13:45:32.315Z,27.88
2023-02-22T13:46:32.409Z,27.89
2023-02-22T13:47:32.343Z,27.87
2023-02-22T13:48:32.348Z,27.88
2023-02-22T13:49:32.345Z,27.87
2023-02-22T13:50:32.321Z,27.88
2023-02-22T13:51:32.332Z,27.88
2023-02-22T13:52:32.358Z,27.84
2023-02-22T13:53:32.348Z,27.84
2023-02-22T13:54:32.329Z,27.85
2023-02-22T13:55:32.319Z,27.84
2023-02-22T13:56:32.297Z,27.84
2023-02-22T13:57:32.327Z,27.84
2023-02-22T13:58:32.308Z,27.87
2023-02-22T13:59:33.816Z,27.85
2023-02-22T14:25:32.330Z,27.77
2023-02-22T14:31:37.299Z,27.85
2023-02-22T14:33:32.289Z,27.88
2023-02-22T14:34:32.291Z,27.87
2023-02-22T14:35:44.575Z,27.91
2023-02-22T14:37:32.365Z,27.92
2023-02-22T14:38:32.311Z,27.95
2023-02-22T14:39:32.344Z,27.96
2023-02-22T14:40:32.251Z,27.99
2023-02-22T14:41:32.246Z,28.01
2023-02-22T14:42:32.253Z,28.02
2023-02-22T14:43:32.210Z,28.05
2023-02-22T14:44:32.242Z,28.05
2023-02-22T14:45:32.276Z,28.06
2023-02-22T14:46:32.191Z,28.06
2023-02-22T14:47:32.175Z,28.09
2023-02-22T14:48:32.203Z,28.15
2023-02-22T14:49:32.796Z,28.13
2023-02-22T14:50:32.190Z,28.12
2023-02-22T14:51:32.532Z,28.15
2023-02-22T14:52:32.120Z,28.16
2023-02-22T14:53:32.158Z,28.18
2023-02-22T14:54:32.125Z,28.20
2023-02-22T14:55:32.118Z,28.19
2023-02-22T14:56:32.093Z,28.22
2023-02-22T14:57:32.146Z,28.20
2023-02-22T14:58:32.110Z,28.19
2023-02-22T14:59:32.197Z,28.20
2023-02-22T15:00:32.117Z,28.22
2023-02-22T15:01:47.426Z,28.25
2023-02-22T15:02:33.130Z,28.25
2023-02-22T15:03:32.162Z,28.25
2023-02-22T15:04:32.173Z,28.25
2023-02-22T15:05:32.114Z,28.26
2023-02-22T15:06:32.119Z,28.27
2023-02-22T15:07:32.103Z,28.27
2023-02-22T15:08:32.088Z,28.26
2023-02-22T15:09:34.849Z,28.29
2023-02-22T15:10:32.045Z,28.27
2023-02-22T15:11:32.050Z,28.30
2023-02-22T15:12:32.066Z,28.32
2023-02-22T15:13:32.337Z,28.30
2023-02-22T15:14:32.042Z,28.30
2023-02-22T15:15:32.004Z,28.29
2023-02-22T15:16:32.070Z,28.32
2023-02-22T15:17:32.001Z,28.33
2023-02-22T15:18:31.982Z,28.32
2023-02-22T15:19:31.982Z,28.33
2023-02-22T15:20:31.974Z,28.32
2023-02-22T15:22:31.994Z,28.38
2023-02-22T15:26:31.911Z,28.40
2023-02-22T15:27:31.918Z,28.42
2023-02-22T15:28:32.936Z,28.40
2023-02-22T15:29:31.997Z,28.42
2023-02-22T15:30:31.908Z,28.43
2023-02-22T15:31:31.922Z,28.42
2023-02-22T15:32:31.888Z,28.43
2023-02-22T15:33:31.817Z,28.42
2023-02-22T15:34:31.831Z,28.42
2023-02-22T15:35:31.828Z,28.45
2023-02-22T15:36:31.795Z,28.42
2023-02-22T15:37:31.792Z,28.45
2023-02-22T15:38:31.939Z,28.45
2023-02-22T15:39:31.758Z,28.42
2023-02-22T15:40:31.747Z,28.40
2023-02-22T15:41:31.763Z,28.43
2023-02-22T15:42:31.730Z,28.45
2023-02-22T15:44:31.737Z,28.46
2023-02-22T15:45:31.719Z,28.43
2023-02-22T15:46:31.704Z,28.42
2023-02-22T15:47:31.695Z,28.38
2023-02-22T15:48:31.965Z,28.38
2023-02-22T15:49:31.690Z,28.33
2023-02-22T15:50:31.672Z,28.33
2023-02-22T15:52:31.659Z,28.27
2023-02-22T15:53:31.691Z,28.23
2023-02-22T15:54:31.631Z,28.20
2023-02-22T15:55:31.675Z,28.19
2023-02-22T15:56:31.616Z,28.13
2023-02-22T15:57:31.635Z,28.13
2023-02-22T15:58:31.636Z,28.15
2023-02-22T15:59:31.634Z,28.11
2023-02-22T16:00:31.646Z,28.11
2023-02-22T16:01:31.638Z,28.08
2023-02-22T16:02:31.725Z,28.08
2023-02-22T16:03:31.635Z,28.05
2023-02-22T16:04:31.643Z,28.05
2023-02-22T16:05:31.619Z,28.03
2023-02-22T16:06:31.619Z,28.02
2023-02-22T16:08:31.592Z,28.03
2023-02-22T16:09:31.603Z,28.01
2023-02-22T16:10:31.618Z,28.02
2023-02-22T16:11:31.608Z,28.01
2023-02-22T16:12:31.625Z,27.98
2023-02-22T16:13:32.957Z,27.94
2023-02-22T16:14:31.697Z,27.96
2023-02-22T16:15:31.722Z,27.96
2023-02-22T16:16:31.778Z,27.96
2023-02-22T16:17:31.806Z,27.94
2023-02-22T19:19:40.541Z,27.14
2023-02-22T19:21:40.664Z,27.11
2023-02-22T19:22:40.784Z,27.11
2023-02-22T19:23:40.817Z,27.13
2023-02-22T19:24:40.918Z,27.13
2023-02-22T19:25:41.001Z,27.11
2023-02-22T19:26:41.050Z,27.09
2023-02-22T19:27:41.089Z,27.10
2023-02-22T19:28:41.236Z,27.09
2023-02-22T19:29:41.285Z,27.07
2023-02-22T19:30:41.365Z,27.10
2023-02-22T19:31:42.016Z,27.09
2023-02-22T19:32:41.473Z,27.06
2023-02-22T19:33:41.493Z,27.04
2023-02-22T19:34:41.531Z,27.07
2023-02-22T19:35:41.621Z,27.07
2023-02-22T19:36:41.665Z,27.06
2023-02-22T19:37:41.762Z,27.07
2023-02-22T19:38:41.818Z,27.06
2023-02-22T19:39:41.894Z,27.06
2023-02-22T19:40:41.951Z,27.06
2023-02-22T19:41:42.032Z,27.04
2023-02-22T19:42:42.091Z,27.07
2023-02-22T19:43:42.164Z,27.01
2023-02-22T19:44:42.244Z,27.01
2023-02-22T19:45:42.267Z,27.03
2023-02-22T19:46:42.348Z,27.01
2023-02-22T19:47:42.408Z,27.03
2023-02-22T19:48:42.488Z,27.01
2023-02-22T19:49:42.536Z,27.01
2023-02-22T19:50:42.570Z,27.01
2023-02-22T19:52:42.709Z,27.00
2023-02-22T19:53:42.826Z,27.04
2023-02-22T19:54:42.836Z,27.01
2023-02-22T19:55:42.884Z,27.00
2023-02-22T19:56:42.960Z,27.00
2023-02-22T19:57:43.019Z,27.00
2023-02-22T19:58:43.064Z,27.00
2023-02-22T19:59:43.122Z,26.99
2023-02-22T20:00:43.195Z,27.00
2023-02-22T20:01:43.221Z,27.00
2023-02-22T20:02:43.273Z,26.99
2023-02-22T20:03:43.385Z,26.99
2023-02-22T20:04:43.464Z,27.00
2023-02-22T20:05:43.445Z,27.00
2023-02-22T20:06:43.480Z,26.99
2023-02-22T20:07:43.552Z,26.97
2023-02-22T20:08:43.612Z,26.99
2023-02-22T20:09:43.703Z,27.00
2023-02-22T21:10:46.368Z,26.89
2023-02-22T21:11:46.385Z,26.86
2023-02-22T21:12:46.753Z,26.87
2023-02-22T21:13:46.485Z,26.87
2023-02-22T21:14:46.495Z,26.85
2023-02-22T21:15:46.546Z,26.86
2023-02-22T21:16:46.634Z,26.86
2023-02-22T21:17:46.637Z,26.87
2023-02-22T21:18:46.675Z,26.86
2023-02-22T21:19:46.733Z,26.86
2023-02-22T21:20:46.739Z,26.87
2023-02-22T21:21:46.799Z,26.86
2023-02-22T21:22:46.825Z,26.86
2023-02-22T21:23:46.862Z,26.87
2023-02-22T21:24:46.912Z,26.87
2023-02-22T21:25:46.974Z,26.86
2023-02-22T21:26:47.019Z,26.87
2023-02-22T21:27:47.094Z,26.87
2023-02-22T22:56:50.587Z,26.66
2023-02-22T22:57:50.549Z,26.69
2023-02-22T22:58:50.602Z,26.69
2023-02-22T23:04:50.830Z,26.68
2023-02-22T23:06:50.931Z,26.69
2023-02-22T23:07:50.905Z,26.68
2023-02-22T23:08:50.956Z,26.69
2023-02-22T23:09:50.984Z,26.68
2023-02-22T23:10:51.146Z,26.70
2023-02-22T23:11:51.221Z,26.70
2023-02-22T23:12:51.153Z,26.72
2023-02-22T23:13:51.188Z,26.70
2023-02-22T23:14:51.244Z,26.70
2023-02-22T23:15:51.285Z,26.70
2023-02-22T23:16:51.312Z,26.66
2023-02-22T23:17:51.321Z,26.70
2023-02-22T23:18:51.402Z,26.69
2023-02-22T23:19:51.418Z,26.70
2023-02-22T23:20:51.442Z,26.69
2023-02-22T23:21:51.494Z,26.70
2023-02-22T23:22:51.567Z,26.68
2023-02-22T23:23:51.575Z,26.70